Time;durP1;ratioP1;P1;durP2;ratioP2;P2;SDS_P1;SDS_P2;PMS_P1;PMS_P2;Temp;Humidity;BMP_temperature;BMP_pressure;BME280_temperature;BME280_humidity;BME280_pressure;Samples;Min_cycle;Max_cycle;Signal;HPM_P1;HPM_P2
2023/09/19 00:00:25;;;;;;;2.50;0.50;;;15.20;99.90;;;;;;5013815;28;20033;-74
2023/09/19 00:02:59;;;;;;;2.13;0.50;;;15.10;99.90;;;;;;5015019;28;20507;-74
2023/09/19 00:05:27;;;;;;;1.77;0.40;;;15.10;99.90;;;;;;5013669;28;20049;-74
2023/09/19 00:07:58;;;;;;;2.55;0.40;;;15.00;99.90;;;;;;5015673;28;20408;-74
2023/09/19 00:10:26;;;;;;;1.88;0.40;;;14.90;99.90;;;;;;5013217;28;20038;-74
2023/09/19 00:12:58;;;;;;;2.92;0.40;;;14.90;99.90;;;;;;5015040;28;20033;-74
2023/09/19 00:15:28;;;;;;;4.07;0.73;;;14.90;99.90;;;;;;4998172;28;20033;-74
2023/09/19 00:17:55;;;;;;;3.13;0.57;;;14.90;99.90;;;;;;5014257;28;20033;-74
2023/09/19 00:20:23;;;;;;;2.65;0.50;;;14.90;99.90;;;;;;5013883;28;20128;-74
2023/09/19 00:22:51;;;;;;;5.28;0.40;;;14.90;99.90;;;;;;4982109;28;20480;-74
2023/09/19 00:25:18;;;;;;;4.30;0.70;;;15.00;99.90;;;;;;4998978;28;20057;-74
2023/09/19 00:27:46;;;;;;;4.13;0.60;;;15.00;99.90;;;;;;5012984;28;20044;-74
2023/09/19 00:30:16;;;;;;;2.95;0.50;;;15.10;99.90;;;;;;5013801;28;20033;-74
2023/09/19 00:32:43;;;;;;;2.85;0.65;;;15.10;99.90;;;;;;4996805;28;20045;-74
2023/09/19 00:35:10;;;;;;;2.50;0.50;;;15.10;99.90;;;;;;5013819;28;20048;-74
2023/09/19 00:37:39;;;;;;;3.67;0.70;;;15.20;99.90;;;;;;4981515;28;20037;-74
2023/09/19 00:40:12;;;;;;;3.38;0.60;;;15.20;99.90;;;;;;4996817;28;20033;-74
2023/09/19 00:42:48;;;;;;;3.35;0.75;;;15.10;99.90;;;;;;4981899;28;20040;-74
2023/09/19 00:45:17;;;;;;;4.13;0.60;;;15.10;99.90;;;;;;4998149;28;20107;-74
2023/09/19 00:47:49;;;;;;;5.60;0.80;;;15.10;99.90;;;;;;5013516;28;20072;-74
2023/09/19 00:50:21;;;;;;;6.82;0.85;;;15.10;99.90;;;;;;4997486;28;20033;-74
2023/09/19 00:52:53;;;;;;;3.38;0.63;;;15.10;99.90;;;;;;5013742;28;20382;-75
2023/09/19 00:55:20;;;;;;;5.18;1.02;;;15.20;99.90;;;;;;4997905;28;23480;-74
2023/09/19 00:57:47;;;;;;;7.80;1.33;;;15.20;99.90;;;;;;4996994;28;20060;-74
2023/09/19 01:00:15;;;;;;;5.35;1.00;;;15.20;99.90;;;;;;4982123;28;20030;-74
2023/09/19 01:02:43;;;;;;;5.97;0.90;;;15.20;99.90;;;;;;4997824;28;20049;-74
2023/09/19 01:05:10;;;;;;;8.00;1.00;;;15.20;99.90;;;;;;4998474;28;20669;-75
2023/09/19 01:07:40;;;;;;;6.30;1.08;;;15.30;99.90;;;;;;4998815;28;20044;-74
2023/09/19 01:10:10;;;;;;;4.18;0.80;;;15.30;99.90;;;;;;4998931;28;20400;-75
2023/09/19 01:12:42;;;;;;;5.07;0.98;;;15.30;99.90;;;;;;5014050;28;20046;-75
2023/09/19 01:15:40;;;;;;;4.13;0.60;;;15.20;99.90;;;;;;5013040;28;20037;-75
2023/09/19 01:18:25;;;;;;;4.63;0.80;;;15.10;99.90;;;;;;4998556;28;20393;-75
2023/09/19 01:20:54;;;;;;;3.22;0.70;;;15.00;99.90;;;;;;4998482;28;20041;-75
2023/09/19 01:23:32;;;;;;;7.05;0.70;;;15.00;99.90;;;;;;5014083;28;20042;-75
2023/09/19 01:26:24;;;;;;;5.18;1.60;;;14.90;99.90;;;;;;5014677;28;20044;-75
2023/09/19 01:29:01;;;;;;;4.68;0.75;;;14.90;99.90;;;;;;5013704;28;20735;-75
2023/09/19 01:31:35;;;;;;;5.88;1.13;;;14.90;99.90;;;;;;5014171;28;20034;-75
2023/09/19 01:34:07;;;;;;;5.53;1.05;;;14.90;99.90;;;;;;4981740;28;20267;-75
2023/09/19 01:36:36;;;;;;;8.00;1.20;;;14.80;99.90;;;;;;5015617;28;20037;-75
2023/09/19 01:39:10;;;;;;;3.75;0.75;;;14.80;99.90;;;;;;4997037;28;20067;-75
2023/09/19 01:41:52;;;;;;;8.55;1.23;;;14.80;99.90;;;;;;5013165;28;20041;-75
2023/09/19 01:44:38;;;;;;;5.90;1.35;;;14.80;99.90;;;;;;5013221;28;20042;-75
2023/09/19 01:47:23;;;;;;;9.70;1.40;;;14.80;99.90;;;;;;4996919;28;20029;-75
2023/09/19 01:50:13;;;;;;;6.20;1.10;;;14.90;99.90;;;;;;5012494;28;20045;-75
2023/09/19 01:52:48;;;;;;;9.13;1.95;;;14.90;99.90;;;;;;4995273;28;20041;-75
2023/09/19 01:55:17;;;;;;;9.68;1.65;;;15.00;99.90;;;;;;4998131;28;20033;-76
2023/09/19 01:58:07;;;;;;;10.13;1.60;;;15.00;99.90;;;;;;5014232;28;20495;-75
2023/09/19 02:00:37;;;;;;;6.68;0.98;;;15.00;99.90;;;;;;5013452;28;20032;-75
2023/09/19 02:03:04;;;;;;;13.00;1.35;;;15.10;99.90;;;;;;5014325;28;20048;-75
2023/09/19 02:05:30;;;;;;;6.72;1.23;;;15.10;99.90;;;;;;5013085;28;20033;-75
2023/09/19 02:07:58;;;;;;;8.73;1.30;;;15.10;99.90;;;;;;4981405;28;20060;-75
2023/09/19 02:10:25;;;;;;;10.00;1.13;;;15.10;99.90;;;;;;4997030;28;20048;-74
2023/09/19 02:12:51;;;;;;;8.00;1.83;;;15.10;99.90;;;;;;5013575;28;20029;-75
2023/09/19 02:15:18;;;;;;;6.70;1.40;;;15.00;99.90;;;;;;5028605;28;20021;-75
2023/09/19 02:17:45;;;;;;;6.57;1.10;;;15.00;99.90;;;;;;5012921;28;20538;-75
2023/09/19 02:20:12;;;;;;;11.00;1.40;;;14.90;99.90;;;;;;4996053;28;20033;-75
2023/09/19 02:22:39;;;;;;;10.68;2.03;;;14.80;99.90;;;;;;4997522;28;20492;-75
2023/09/19 02:25:07;;;;;;;9.25;1.42;;;14.70;99.90;;;;;;4996373;28;20033;-74
2023/09/19 02:27:33;;;;;;;6.93;1.05;;;14.70;99.90;;;;;;5014606;28;20038;-75
2023/09/19 02:30:03;;;;;;;6.55;1.10;;;14.60;99.90;;;;;;4995842;28;20044;-75
2023/09/19 02:32:36;;;;;;;6.60;0.80;;;14.50;99.90;;;;;;4997492;28;20041;-75
2023/09/19 02:35:04;;;;;;;11.93;1.40;;;14.50;99.90;;;;;;5013478;28;20036;-75
2023/09/19 02:37:32;;;;;;;7.50;1.73;;;14.40;99.90;;;;;;5012712;28;20041;-75
2023/09/19 02:39:59;;;;;;;8.95;1.58;;;14.30;99.90;;;;;;4996472;28;20049;-75
2023/09/19 02:42:25;;;;;;;9.85;1.27;;;14.30;99.90;;;;;;5013448;28;20045;-75
2023/09/19 02:44:52;;;;;;;4.82;0.98;;;14.20;99.90;;;;;;4998221;28;20475;-75
2023/09/19 02:47:18;;;;;;;9.43;1.23;;;14.20;99.90;;;;;;5013833;28;20036;-75
2023/09/19 02:49:45;;;;;;;7.22;1.10;;;14.20;99.90;;;;;;4996824;28;20044;-74
2023/09/19 02:52:11;;;;;;;7.75;1.13;;;14.10;99.90;;;;;;4997305;28;20044;-74
2023/09/19 02:54:37;;;;;;;7.05;1.25;;;14.10;99.90;;;;;;5012823;28;20037;-74
2023/09/19 02:57:06;;;;;;;8.02;1.42;;;14.00;99.90;;;;;;5000396;28;20037;-74
2023/09/19 02:59:32;;;;;;;11.00;2.22;;;14.00;99.90;;;;;;5017986;28;20419;-75
2023/09/19 03:02:00;;;;;;;10.50;1.17;;;14.00;99.90;;;;;;5001748;28;20481;-74
2023/09/19 03:04:26;;;;;;;8.23;1.10;;;13.90;99.90;;;;;;4982480;28;20786;-74
2023/09/19 03:06:58;;;;;;;6.22;0.93;;;13.90;99.90;;;;;;4999834;28;20487;-74
2023/09/19 03:09:24;;;;;;;9.52;1.00;;;13.90;99.90;;;;;;5000925;28;20519;-74
2023/09/19 03:11:51;;;;;;;7.55;1.52;;;13.90;99.90;;;;;;5001025;28;20048;-75
2023/09/19 03:14:19;;;;;;;5.88;1.08;;;13.80;99.90;;;;;;5000758;28;20033;-74
2023/09/19 03:16:47;;;;;;;8.07;1.25;;;13.80;99.90;;;;;;5014278;28;20041;-75
2023/09/19 03:19:15;;;;;;;8.07;1.63;;;13.70;99.90;;;;;;5016618;28;20040;-74
2023/09/19 03:21:42;;;;;;;8.40;1.55;;;13.70;99.90;;;;;;4996846;28;20033;-74
2023/09/19 03:24:10;;;;;;;5.30;0.90;;;13.70;99.90;;;;;;4973816;28;20147;-75
2023/09/19 03:26:39;;;;;;;10.35;1.10;;;13.60;99.90;;;;;;4999555;28;20041;-75
2023/09/19 03:29:06;;;;;;;7.78;1.08;;;13.60;99.90;;;;;;4994901;28;20372;-75
2023/09/19 03:31:36;;;;;;;5.93;1.25;;;13.60;99.90;;;;;;4999480;28;20392;-75
2023/09/19 03:34:04;;;;;;;4.72;1.13;;;13.50;99.90;;;;;;5000613;28;20052;-76
2023/09/19 03:36:31;;;;;;;8.15;1.15;;;13.50;99.90;;;;;;5017649;28;20048;-75
2023/09/19 03:38:57;;;;;;;11.85;1.20;;;13.50;99.90;;;;;;5005150;28;20053;-75
2023/09/19 03:41:24;;;;;;;7.30;1.38;;;13.50;99.90;;;;;;5016704;28;20400;-74
2023/09/19 03:43:50;;;;;;;5.78;0.88;;;13.50;99.90;;;;;;5000590;28;20044;-74
2023/09/19 03:46:17;;;;;;;4.85;0.90;;;13.40;99.90;;;;;;5001348;28;20045;-73
2023/09/19 03:48:44;;;;;;;8.38;1.00;;;13.40;99.90;;;;;;5016961;28;20044;-75
2023/09/19 03:51:10;;;;;;;6.68;1.38;;;13.40;99.90;;;;;;5000536;28;20034;-74
2023/09/19 03:53:37;;;;;;;6.05;1.20;;;13.30;99.90;;;;;;5016557;28;20045;-74
2023/09/19 03:56:03;;;;;;;6.70;1.02;;;13.30;99.90;;;;;;5001620;28;20037;-75
2023/09/19 03:58:34;;;;;;;8.40;0.90;;;13.30;99.90;;;;;;5000660;28;20042;-74
2023/09/19 04:01:01;;;;;;;9.70;1.10;;;13.30;99.90;;;;;;5017367;28;20342;-74
2023/09/19 04:03:34;;;;;;;9.85;1.25;;;13.20;99.90;;;;;;5013049;28;20040;-74
2023/09/19 04:06:02;;;;;;;6.78;0.98;;;13.20;99.90;;;;;;5004381;28;20038;-74
2023/09/19 04:08:29;;;;;;;10.00;1.48;;;13.20;99.90;;;;;;4999005;28;20041;-74
2023/09/19 04:10:56;;;;;;;9.43;1.65;;;13.20;99.90;;;;;;5008550;28;20029;-74
2023/09/19 04:13:23;;;;;;;6.50;1.13;;;13.20;99.90;;;;;;5000661;28;20033;-74
2023/09/19 04:15:49;;;;;;;4.82;0.95;;;13.20;99.90;;;;;;5016945;28;20025;-74
2023/09/19 04:18:15;;;;;;;7.47;1.00;;;13.20;99.90;;;;;;5017164;28;20049;-74
2023/09/19 04:20:48;;;;;;;5.63;0.80;;;13.20;99.90;;;;;;4997705;28;20108;-75
2023/09/19 04:23:15;;;;;;;4.88;1.00;;;13.10;99.90;;;;;;5016377;28;20048;-74
2023/09/19 04:25:43;;;;;;;5.32;0.95;;;13.10;99.90;;;;;;4995522;28;20037;-75
2023/09/19 04:28:10;;;;;;;7.05;1.08;;;13.20;99.90;;;;;;4975493;28;20049;-74
2023/09/19 04:30:40;;;;;;;6.13;1.10;;;13.20;99.90;;;;;;5007159;28;20365;-74
2023/09/19 04:33:07;;;;;;;8.25;1.05;;;13.20;99.90;;;;;;5000147;28;20032;-75
2023/09/19 04:35:34;;;;;;;10.85;1.35;;;13.20;99.90;;;;;;5014340;28;20029;-74
2023/09/19 04:38:03;;;;;;;6.85;0.82;;;13.20;99.90;;;;;;5014734;28;20037;-75
2023/09/19 04:40:29;;;;;;;5.72;0.80;;;13.20;99.90;;;;;;4998264;28;20046;-75
2023/09/19 04:42:59;;;;;;;11.77;2.05;;;13.20;99.90;;;;;;4982147;28;20036;-75
2023/09/19 04:45:27;;;;;;;5.75;1.15;;;13.20;99.90;;;;;;4998733;28;20021;-74
2023/09/19 04:47:54;;;;;;;6.60;1.10;;;13.20;99.90;;;;;;5015958;28;20045;-75
2023/09/19 04:50:26;;;;;;;7.13;0.98;;;13.20;99.90;;;;;;5013409;28;20025;-75
2023/09/19 04:52:53;;;;;;;5.93;1.05;;;13.20;99.90;;;;;;4996401;28;20045;-76
2023/09/19 04:55:20;;;;;;;6.70;0.95;;;13.20;99.90;;;;;;4997757;28;20032;-74
2023/09/19 04:57:53;;;;;;;4.68;1.08;;;13.10;99.90;;;;;;4980535;28;20037;-75
2023/09/19 05:00:25;;;;;;;9.80;2.15;;;13.10;99.90;;;;;;5014053;28;20054;-75
2023/09/19 05:02:52;;;;;;;7.28;0.98;;;13.10;99.90;;;;;;5016131;28;20036;-76
2023/09/19 05:05:22;;;;;;;9.05;1.90;;;13.10;99.90;;;;;;4999077;28;20048;-75
2023/09/19 05:07:49;;;;;;;9.43;1.42;;;13.10;99.90;;;;;;4999280;28;20256;-74
2023/09/19 05:10:18;;;;;;;7.75;1.00;;;13.10;99.90;;;;;;5016416;28;20034;-75
2023/09/19 05:12:47;;;;;;;5.10;1.10;;;13.10;99.90;;;;;;5015853;28;20503;-75
2023/09/19 05:15:19;;;;;;;6.63;1.35;;;13.20;99.90;;;;;;4999347;28;20029;-74
2023/09/19 05:17:51;;;;;;;10.32;1.50;;;13.20;99.90;;;;;;5005476;28;20450;-74
2023/09/19 05:20:32;;;;;;;4.97;1.10;;;13.20;99.90;;;;;;5007891;28;20045;-74
2023/09/19 05:23:12;;;;;;;5.13;1.10;;;13.20;99.90;;;;;;4998633;28;20527;-75
2023/09/19 05:25:39;;;;;;;6.30;1.00;;;13.20;99.90;;;;;;4996273;28;20072;-76
2023/09/19 05:28:07;;;;;;;7.32;1.00;;;13.20;99.90;;;;;;5016396;28;20041;-75
2023/09/19 05:30:35;;;;;;;6.65;1.00;;;13.20;99.90;;;;;;5015235;28;20033;-75
2023/09/19 05:33:04;;;;;;;8.15;0.98;;;13.20;99.90;;;;;;5015953;28;20043;-76
2023/09/19 05:35:31;;;;;;;5.45;0.80;;;13.30;99.90;;;;;;5013948;28;20034;-75
2023/09/19 05:37:57;;;;;;;8.07;0.95;;;13.30;99.90;;;;;;5017437;28;20041;-76
2023/09/19 05:40:25;;;;;;;11.25;1.23;;;13.30;99.90;;;;;;5014686;28;20033;-76
2023/09/19 05:42:51;;;;;;;7.72;0.90;;;13.40;99.90;;;;;;4968977;28;20033;-76
2023/09/19 05:45:24;;;;;;;8.30;0.90;;;13.40;99.90;;;;;;5008704;28;20030;-76
2023/09/19 05:47:55;;;;;;;8.63;1.17;;;13.40;99.90;;;;;;4991669;28;20037;-75
2023/09/19 05:50:24;;;;;;;8.20;1.38;;;13.40;99.90;;;;;;5013629;28;20037;-75
2023/09/19 05:52:55;;;;;;;9.00;1.30;;;13.50;99.90;;;;;;4980298;28;20060;-76
2023/09/19 05:55:25;;;;;;;6.22;1.38;;;13.50;99.90;;;;;;5016561;28;20042;-76
2023/09/19 05:57:52;;;;;;;7.60;1.13;;;13.60;99.90;;;;;;4998773;28;20064;-74
2023/09/19 06:00:22;;;;;;;5.38;0.88;;;13.60;99.90;;;;;;5014778;28;20045;-74
2023/09/19 06:02:56;;;;;;;6.43;1.15;;;13.60;99.90;;;;;;4999468;28;20030;-74
2023/09/19 06:05:25;;;;;;;4.68;0.68;;;13.60;99.90;;;;;;4998336;28;20030;-78
2023/09/19 06:07:53;;;;;;;6.68;1.02;;;13.60;99.90;;;;;;5013973;28;20041;-75
2023/09/19 06:10:20;;;;;;;6.03;0.80;;;13.60;99.90;;;;;;4995562;28;20037;-76
2023/09/19 06:12:48;;;;;;;5.57;0.80;;;13.70;99.90;;;;;;5014199;28;20041;-76
2023/09/19 06:15:15;;;;;;;5.90;1.05;;;13.70;99.90;;;;;;4998522;28;20644;-75
2023/09/19 06:17:43;;;;;;;7.15;2.28;;;13.70;99.90;;;;;;5016278;28;20769;-75
2023/09/19 06:20:12;;;;;;;10.82;3.22;;;13.80;99.90;;;;;;5013361;28;20041;-76
2023/09/19 06:22:41;;;;;;;9.77;2.30;;;13.80;99.90;;;;;;4997455;28;20034;-75
2023/09/19 06:25:11;;;;;;;14.32;4.78;;;13.90;99.90;;;;;;5014369;28;20033;-76
2023/09/19 06:27:45;;;;;;;8.35;2.10;;;13.90;99.90;;;;;;4995846;28;20374;-75
2023/09/19 06:30:12;;;;;;;8.70;1.50;;;13.90;99.90;;;;;;5001992;28;20044;-75
2023/09/19 06:32:39;;;;;;;6.90;1.20;;;14.00;99.90;;;;;;5014312;28;20407;-75
2023/09/19 06:35:10;;;;;;;8.30;1.25;;;14.00;99.90;;;;;;5015982;28;20036;-75
2023/09/19 06:37:41;;;;;;;5.75;1.10;;;14.10;99.90;;;;;;5016338;28;20025;-75
2023/09/19 06:40:14;;;;;;;9.10;1.50;;;14.20;99.90;;;;;;5011676;28;20037;-75
2023/09/19 06:42:45;;;;;;;6.35;0.75;;;14.20;99.90;;;;;;5013819;28;20029;-75
2023/09/19 06:45:17;;;;;;;8.80;1.20;;;14.30;99.90;;;;;;5013063;28;20025;-75
2023/09/19 06:47:45;;;;;;;6.35;0.80;;;14.40;99.90;;;;;;4997277;28;20045;-76
2023/09/19 06:50:15;;;;;;;7.30;1.15;;;14.40;99.90;;;;;;4996511;28;20040;-76
2023/09/19 06:52:41;;;;;;;7.53;0.90;;;14.50;99.90;;;;;;5012694;28;20042;-75
2023/09/19 06:55:09;;;;;;;6.15;0.85;;;14.50;99.90;;;;;;5011832;28;20049;-75
2023/09/19 06:57:36;;;;;;;8.15;0.90;;;14.60;99.90;;;;;;5013392;28;20045;-75
2023/09/19 07:00:08;;;;;;;8.35;1.73;;;14.70;99.90;;;;;;5014240;28;20037;-75
2023/09/19 07:02:35;;;;;;;;;;;14.70;99.90;;;;;;5013811;28;21587;-78
2023/09/19 07:05:01;;;;;;;8.25;1.15;;;14.80;99.90;;;;;;5000862;28;19924;-75
2023/09/19 07:07:29;;;;;;;6.60;1.33;;;14.90;99.90;;;;;;5015007;28;20165;-75
2023/09/19 07:09:56;;;;;;;6.22;1.05;;;14.90;99.90;;;;;;5012562;28;20038;-75
2023/09/19 07:12:23;;;;;;;9.50;1.58;;;15.00;99.90;;;;;;4998829;28;20269;-75
2023/09/19 07:14:49;;;;;;;6.53;1.30;;;15.10;99.90;;;;;;5013991;28;20361;-76
2023/09/19 07:17:18;;;;;;;5.70;1.10;;;15.10;99.90;;;;;;5014264;28;20350;-75
2023/09/19 07:19:45;;;;;;;9.48;1.38;;;15.10;99.90;;;;;;4997843;28;20049;-75
2023/09/19 07:22:11;;;;;;;9.95;1.45;;;15.20;99.90;;;;;;4997246;28;20033;-75
2023/09/19 07:24:40;;;;;;;12.10;1.83;;;15.30;99.90;;;;;;4997050;28;20033;-76
2023/09/19 07:27:07;;;;;;;15.98;1.85;;;15.30;99.90;;;;;;5013806;28;20508;-75
2023/09/19 07:29:33;;;;;;;10.13;1.88;;;15.30;99.90;;;;;;4983738;28;20061;-75
2023/09/19 07:31:59;;;;;;;13.40;1.10;;;15.40;99.90;;;;;;5018213;28;20026;-75
2023/09/19 07:34:26;;;;;;;11.50;1.27;;;15.50;99.90;;;;;;4998072;28;20497;-75
2023/09/19 07:36:52;;;;;;;11.30;1.25;;;15.60;99.90;;;;;;4998075;28;20484;-75
2023/09/19 07:39:19;;;;;;;7.72;1.10;;;15.70;99.90;;;;;;5014059;28;20040;-75
2023/09/19 07:41:46;;;;;;;9.60;1.48;;;15.70;99.90;;;;;;5000171;28;20030;-75
2023/09/19 07:44:12;;;;;;;8.00;1.10;;;15.80;99.90;;;;;;5016085;28;20539;-76
2023/09/19 07:46:39;;;;;;;12.48;1.40;;;15.90;99.90;;;;;;5015760;28;20396;-76
2023/09/19 07:49:05;;;;;;;9.70;2.17;;;16.00;99.90;;;;;;5011760;28;20030;-75
2023/09/19 07:51:33;;;;;;;9.80;1.83;;;16.00;99.90;;;;;;4990392;28;20491;-75
2023/09/19 07:53:59;;;;;;;9.93;1.20;;;16.10;99.90;;;;;;5017694;28;20483;-75
2023/09/19 07:56:27;;;;;;;8.35;1.15;;;16.20;99.90;;;;;;5017790;28;20034;-76
2023/09/19 07:58:53;;;;;;;7.60;1.20;;;16.20;99.90;;;;;;5019042;28;20488;-75
2023/09/19 08:01:23;;;;;;;9.75;1.30;;;16.30;99.90;;;;;;5018615;28;21923;-75
2023/09/19 08:03:52;;;;;;;;;;;16.30;99.90;;;;;;5002588;28;20045;-76
2023/09/19 08:06:20;;;;;;;9.15;1.50;;;16.40;99.90;;;;;;5002910;28;19913;-75
2023/09/19 08:08:46;;;;;;;11.25;1.95;;;16.50;99.90;;;;;;5005021;28;20514;-75
2023/09/19 08:11:18;;;;;;;11.68;1.80;;;16.60;99.90;;;;;;5018094;28;20404;-75
2023/09/19 08:13:48;;;;;;;14.93;1.77;;;16.60;99.90;;;;;;5017115;28;20049;-75
2023/09/19 08:16:19;;;;;;;12.52;1.35;;;16.70;99.90;;;;;;5033627;28;20033;-76
2023/09/19 08:18:54;;;;;;;10.55;1.23;;;16.80;99.90;;;;;;5000566;28;20037;-75
2023/09/19 08:21:25;;;;;;;12.65;1.27;;;16.90;99.90;;;;;;5017189;28;20037;-75
2023/09/19 08:23:52;;;;;;;9.05;1.38;;;17.00;99.90;;;;;;4998158;28;20052;-75
2023/09/19 08:26:19;;;;;;;11.73;1.80;;;17.10;99.90;;;;;;5017174;28;20029;-75
2023/09/19 08:28:46;;;;;;;8.32;1.33;;;17.20;99.90;;;;;;5016015;28;20041;-75
2023/09/19 08:31:12;;;;;;;6.78;1.08;;;17.30;99.90;;;;;;5000627;28;20029;-75
2023/09/19 08:33:40;;;;;;;9.95;1.55;;;17.50;99.90;;;;;;5000326;28;20030;-75
2023/09/19 08:36:08;;;;;;;12.48;1.77;;;17.60;99.90;;;;;;5016931;28;20037;-76
2023/09/19 08:38:36;;;;;;;11.68;1.98;;;17.70;99.90;;;;;;5016137;28;20044;-75
2023/09/19 08:41:08;;;;;;;12.18;1.92;;;17.80;99.90;;;;;;4996758;28;21159;-76
2023/09/19 08:43:35;;;;;;;11.02;1.65;;;17.80;99.90;;;;;;4999532;28;20387;-76
2023/09/19 08:46:10;;;;;;;13.82;2.10;;;17.90;99.90;;;;;;5015517;28;20392;-75
2023/09/19 08:48:39;;;;;;;;;;;18.00;99.90;;;;;;4983682;28;20516;-76
2023/09/19 08:51:27;;;;;;;12.55;1.88;;;18.00;99.90;;;;;;5016313;28;19920;-76
2023/09/19 08:54:07;;;;;;;11.30;1.58;;;18.00;99.90;;;;;;5016809;28;20072;-76
2023/09/19 08:56:34;;;;;;;8.50;1.23;;;18.10;99.90;;;;;;5014594;28;20033;-76
2023/09/19 08:59:04;;;;;;;7.07;1.20;;;18.20;99.90;;;;;;4970796;28;20052;-76
2023/09/19 09:01:32;;;;;;;9.27;1.50;;;18.20;99.90;;;;;;4995260;28;20112;-75
2023/09/19 09:03:59;;;;;;;10.13;1.45;;;18.30;99.90;;;;;;4970869;28;20032;-75
2023/09/19 09:06:29;;;;;;;12.27;1.33;;;18.50;99.90;;;;;;5000065;28;20045;-75
2023/09/19 09:08:56;;;;;;;6.57;1.10;;;18.50;99.90;;;;;;4999862;28;20049;-76
2023/09/19 09:11:25;;;;;;;8.52;1.73;;;18.60;99.90;;;;;;4981002;28;20045;-76
2023/09/19 09:13:52;;;;;;;7.28;1.08;;;18.60;99.90;;;;;;4964779;28;20029;-76
2023/09/19 09:16:18;;;;;;;6.88;1.40;;;18.50;99.90;;;;;;4996360;28;20036;-76
2023/09/19 09:18:46;;;;;;;13.15;1.80;;;18.60;99.90;;;;;;4997779;28;20460;-76
2023/09/19 09:21:15;;;;;;;11.32;1.52;;;18.60;99.90;;;;;;4998020;28;20060;-76
2023/09/19 09:23:41;;;;;;;13.05;1.58;;;18.70;99.90;;;;;;5014569;28;20290;-76
2023/09/19 09:26:09;;;;;;;12.43;1.40;;;18.70;99.90;;;;;;5015917;28;20040;-75
2023/09/19 09:28:44;;;;;;;6.95;1.17;;;18.80;99.90;;;;;;5013497;28;20041;-76
2023/09/19 09:31:23;;;;;;;8.05;1.35;;;18.90;99.90;;;;;;4998333;28;20499;-75
2023/09/19 09:33:54;;;;;;;9.82;1.52;;;19.10;99.90;;;;;;4999430;28;20097;-76
2023/09/19 09:36:37;;;;;;;7.22;1.30;;;19.20;99.90;;;;;;4982552;28;20045;-75
2023/09/19 09:39:25;;;;;;;9.77;1.33;;;19.40;99.90;;;;;;4998761;28;20041;-75
2023/09/19 09:41:51;;;;;;;9.13;1.20;;;19.40;99.90;;;;;;4995939;28;20052;-76
2023/09/19 09:44:19;;;;;;;5.75;1.00;;;19.70;99.90;;;;;;4981446;28;20042;-75
2023/09/19 09:52:07;;;;;;;6.72;1.38;;;19.70;99.90;;;;;;5015148;28;20044;-74
2023/09/19 09:54:38;;;;;;;6.65;1.35;;;19.70;99.90;;;;;;4985953;28;20371;-75
2023/09/19 09:57:23;;;;;;;8.55;1.10;;;19.60;99.90;;;;;;5014915;28;20040;-74
2023/09/19 09:59:58;;;;;;;9.27;1.77;;;19.60;99.90;;;;;;4982910;28;20377;-74
2023/09/19 10:02:32;;;;;;;8.52;1.55;;;19.70;99.90;;;;;;5006706;28;20457;-75
2023/09/19 10:05:45;;;;;;;10.35;1.20;;;19.80;99.90;;;;;;5005655;28;20041;-75
2023/09/19 10:07:53;;;;;;;7.07;1.40;;;19.90;99.90;;;;;;4991562;28;20045;-74
2023/09/19 10:11:19;;;;;;;6.80;1.52;;;20.20;99.90;;;;;;5015421;28;20033;-74
2023/09/19 10:13:29;;;;;;;11.15;1.35;;;20.30;99.90;;;;;;4984271;28;20048;-74
2023/09/19 10:15:58;;;;;;;7.10;1.30;;;20.50;99.90;;;;;;4998240;28;20037;-75
2023/09/19 10:18:27;;;;;;;8.77;1.23;;;20.70;99.90;;;;;;4998880;28;20041;-75
2023/09/19 10:20:57;;;;;;;8.60;1.20;;;21.00;99.90;;;;;;4998055;28;20376;-76
2023/09/19 10:23:29;;;;;;;7.00;1.10;;;21.20;99.90;;;;;;5015137;28;20052;-74
2023/09/19 10:25:57;;;;;;;13.60;2.25;;;21.30;99.90;;;;;;5012739;28;20048;-75
2023/09/19 10:28:27;;;;;;;10.30;1.50;;;21.50;99.90;;;;;;4996367;28;20041;-75
2023/09/19 10:30:54;;;;;;;8.15;1.23;;;21.70;99.90;;;;;;5013939;28;20044;-75
2023/09/19 10:33:25;;;;;;;7.65;1.63;;;22.10;99.90;;;;;;4999118;28;20037;-74
2023/09/19 10:35:59;;;;;;;5.57;1.33;;;22.50;99.90;;;;;;4982379;28;20038;-75
2023/09/19 10:38:28;;;;;;;8.43;1.50;;;22.50;99.90;;;;;;4997231;28;20476;-75
2023/09/19 10:40:59;;;;;;;5.65;1.20;;;22.40;99.90;;;;;;5014210;28;20029;-76
2023/09/19 10:43:38;;;;;;;9.05;1.38;;;22.30;99.90;;;;;;4998783;28;20049;-75
2023/09/19 10:46:12;;;;;;;11.20;1.20;;;22.40;99.90;;;;;;4982357;28;20060;-74
2023/09/19 10:48:44;;;;;;;5.55;1.20;;;22.30;99.90;;;;;;4996123;28;20042;-74
2023/09/19 10:51:19;;;;;;;9.07;1.90;;;22.20;99.90;;;;;;5013689;28;20042;-74
2023/09/19 10:54:00;;;;;;;11.98;1.23;;;22.20;99.90;;;;;;5014899;28;20041;-76
2023/09/19 10:56:37;;;;;;;7.72;1.73;;;22.00;99.90;;;;;;4989172;28;20041;-76
2023/09/19 10:59:12;;;;;;;5.65;1.10;;;22.00;99.90;;;;;;5011967;28;20049;-76
2023/09/19 11:01:53;;;;;;;7.18;1.40;;;21.90;99.90;;;;;;5010288;28;20382;-76
2023/09/19 11:04:28;;;;;;;9.93;1.55;;;21.70;99.90;;;;;;4986346;28;20384;-76
2023/09/19 11:07:15;;;;;;;11.52;1.85;;;21.50;99.90;;;;;;4979633;28;20034;-72
2023/09/19 11:09:47;;;;;;;7.35;1.17;;;21.30;99.90;;;;;;4996325;28;20045;-74
2023/09/19 11:14:58;;;;;;;7.03;1.30;;;20.90;99.90;;;;;;5013651;28;20225;-74
2023/09/19 11:17:31;;;;;;;7.22;1.40;;;20.80;99.90;;;;;;5000027;28;20034;-74
2023/09/19 11:20:15;;;;;;;4.85;1.20;;;20.70;99.90;;;;;;4987007;28;20605;-75
2023/09/19 11:22:52;;;;;;;4.80;1.10;;;20.60;99.90;;;;;;5001844;28;20052;-75
2023/09/19 11:25:30;;;;;;;6.32;1.08;;;20.70;99.90;;;;;;5017660;28;20045;-74
2023/09/19 11:28:14;;;;;;;6.13;0.80;;;20.80;99.90;;;;;;5018001;28;20045;-74
2023/09/19 11:30:43;;;;;;;10.18;1.48;;;20.90;99.90;;;;;;4999763;28;20072;-74
2023/09/19 11:33:37;;;;;;;8.05;1.08;;;21.10;99.90;;;;;;5018466;28;20030;-74
2023/09/19 11:36:06;;;;;;;8.45;1.17;;;21.40;99.90;;;;;;5000470;28;20049;-74
2023/09/19 11:38:45;;;;;;;8.60;1.08;;;21.50;99.90;;;;;;5000662;28;20041;-74
2023/09/19 11:43:52;;;;;;;6.80;1.10;;;21.40;99.90;;;;;;5017185;28;20037;-74
2023/09/19 11:46:21;;;;;;;6.35;1.02;;;21.40;99.90;;;;;;5000999;28;20041;-74
2023/09/19 11:48:49;;;;;;;6.65;0.90;;;21.40;99.90;;;;;;5000872;28;20037;-74
2023/09/19 11:51:27;;;;;;;6.85;0.95;;;21.70;99.90;;;;;;5019469;28;20025;-74
2023/09/19 11:54:00;;;;;;;8.35;1.00;;;22.30;99.90;;;;;;5017315;28;20397;-74
2023/09/19 11:56:28;;;;;;;6.57;1.25;;;22.90;99.90;;;;;;5017690;28;20725;-74
2023/09/19 11:58:56;;;;;;;6.82;1.08;;;23.40;99.90;;;;;;4999562;28;20601;-74
2023/09/19 12:01:31;;;;;;;9.27;1.08;;;24.20;99.90;;;;;;5000184;28;20033;-74
2023/09/19 12:03:59;;;;;;;7.53;0.90;;;24.60;99.90;;;;;;5017479;28;20384;-75
2023/09/19 12:06:27;;;;;;;7.75;1.20;;;24.60;99.90;;;;;;5002266;28;20392;-75
2023/09/19 12:08:54;;;;;;;6.07;1.33;;;24.40;99.90;;;;;;5000778;28;20400;-74
2023/09/19 12:11:23;;;;;;;6.28;1.17;;;24.00;99.90;;;;;;5016168;28;20029;-74
2023/09/19 12:13:50;;;;;;;5.40;0.95;;;23.80;99.90;;;;;;5000637;28;20502;-74
2023/09/19 12:16:21;;;;;;;5.22;0.70;;;23.80;99.90;;;;;;5017995;28;20037;-74
2023/09/19 12:18:57;;;;;;;6.40;0.80;;;23.80;99.90;;;;;;5016471;28;20033;-74
2023/09/19 12:21:32;;;;;;;3.75;0.80;;;23.90;99.90;;;;;;4998646;28;20037;-74
2023/09/19 12:24:13;;;;;;;4.88;1.05;;;24.00;99.90;;;;;;5017214;28;20033;-74
2023/09/19 12:26:41;;;;;;;4.93;0.80;;;24.10;99.90;;;;;;5015821;28;20053;-74
2023/09/19 12:29:17;;;;;;;4.60;0.90;;;24.40;99.90;;;;;;4999095;28;20053;-74
2023/09/19 12:31:57;;;;;;;6.65;0.80;;;24.60;99.90;;;;;;4984080;28;20038;-74
2023/09/19 12:34:28;;;;;;;5.07;0.70;;;24.90;99.90;;;;;;5010701;28;20021;-74
2023/09/19 12:37:22;;;;;;;4.60;0.80;;;25.30;99.90;;;;;;4999389;28;20044;-74
2023/09/19 12:39:53;;;;;;;3.33;0.60;;;24.90;99.90;;;;;;5017127;28;20042;-74
2023/09/19 12:42:22;;;;;;;5.93;0.63;;;24.30;99.80;;;;;;5016062;28;20041;-74
2023/09/19 12:44:55;;;;;;;5.40;0.85;;;23.70;99.90;;;;;;5000012;28;20041;-74
2023/09/19 12:47:25;;;;;;;2.70;0.55;;;23.20;99.90;;;;;;5000342;28;20044;-74
2023/09/19 12:50:18;;;;;;;5.03;0.68;;;22.70;99.90;;;;;;4984997;28;20164;-75
2023/09/19 12:52:49;;;;;;;3.42;0.45;;;22.30;99.90;;;;;;5017967;28;20025;-74
2023/09/19 12:55:26;;;;;;;3.88;0.77;;;22.00;99.90;;;;;;5015747;28;20506;-74
2023/09/19 12:58:05;;;;;;;1.88;0.40;;;21.80;99.90;;;;;;5016074;28;20038;-74
2023/09/19 13:00:42;;;;;;;3.25;0.50;;;21.70;99.90;;;;;;4999431;28;20140;-74
2023/09/19 13:03:15;;;;;;;4.97;0.57;;;21.60;99.90;;;;;;5014722;28;20053;-74
2023/09/19 13:05:48;;;;;;;4.43;0.60;;;21.40;99.90;;;;;;5015394;28;20054;-73
2023/09/19 13:08:20;;;;;;;3.38;0.50;;;21.30;99.90;;;;;;4998093;28;20049;-73
2023/09/19 13:11:22;;;;;;;2.38;0.60;;;21.20;99.90;;;;;;5015669;28;20029;-74
2023/09/19 13:14:11;;;;;;;5.10;0.40;;;21.00;99.90;;;;;;4935585;28;20046;-74